sensor_id;sensor_type;location;lat;lon;timestamp;temperature;humidity
32187;DHT22;18686;53.084;8.872;2023-01-25T00:01:53;1.70;99.90
32187;DHT22;18686;53.084;8.872;2023-01-25T00:04:22;1.70;99.90
32187;DHT22;18686;53.084;8.872;2023-01-25T00:06:50;1.70;99.90
32187;DHT22;18686;53.084;8.872;2023-01-25T00:09:19;1.70;99.90
32187;DHT22;18686;53.084;8.872;2023-01-25T00:11:48;1.70;99.90
32187;DHT22;18686;53.084;8.872;2023-01-25T00:14:18;1.70;99.90
32187;DHT22;18686;53.084;8.872;2023-01-25T00:16:46;1.70;99.90
32187;DHT22;18686;53.084;8.872;2023-01-25T00:19:14;1.70;99.90
32187;DHT22;18686;53.084;8.872;2023-01-25T00:21:42;1.70;99.90
32187;DHT22;18686;53.084;8.872;2023-01-25T00:24:11;1.80;99.90
32187;DHT22;18686;53.084;8.872;2023-01-25T00:26:41;1.80;99.90
32187;DHT22;18686;53.084;8.872;2023-01-25T00:29:11;1.70;99.90
32187;DHT22;18686;53.084;8.872;2023-01-25T00:31:53;1.70;99.90
32187;DHT22;18686;53.084;8.872;2023-01-25T00:34:46;1.70;99.90
32187;DHT22;18686;53.084;8.872;2023-01-25T00:37:22;1.70;99.90
32187;DHT22;18686;53.084;8.872;2023-01-25T00:39:51;1.60;99.90
32187;DHT22;18686;53.084;8.872;2023-01-25T00:42:19;1.50;99.90
32187;DHT22;18686;53.084;8.872;2023-01-25T00:44:48;1.50;99.90
32187;DHT22;18686;53.084;8.872;2023-01-25T00:47:20;1.50;99.90
32187;DHT22;18686;53.084;8.872;2023-01-25T00:49:48;1.50;99.90
32187;DHT22;18686;53.084;8.872;2023-01-25T00:52:16;1.50;99.90
32187;DHT22;18686;53.084;8.872;2023-01-25T00:54:45;1.50;99.90
32187;DHT22;18686;53.084;8.872;2023-01-25T00:57:14;1.40;99.90
32187;DHT22;18686;53.084;8.872;2023-01-25T00:59:42;1.40;99.90
32187;DHT22;18686;53.084;8.872;2023-01-25T01:02:13;1.40;99.90
32187;DHT22;18686;53.084;8.872;2023-01-25T01:04:42;1.40;99.90
32187;DHT22;18686;53.084;8.872;2023-01-25T01:07:12;1.50;99.90
32187;DHT22;18686;53.084;8.872;2023-01-25T01:09:40;1.40;99.90
32187;DHT22;18686;53.084;8.872;2023-01-25T01:12:09;1.50;99.90
32187;DHT22;18686;53.084;8.872;2023-01-25T01:14:37;1.50;99.90
32187;DHT22;18686;53.084;8.872;2023-01-25T01:17:06;1.50;99.90
32187;DHT22;18686;53.084;8.872;2023-01-25T01:19:34;1.50;99.90
32187;DHT22;18686;53.084;8.872;2023-01-25T01:22:04;1.40;99.90
32187;DHT22;18686;53.084;8.872;2023-01-25T01:24:32;1.40;99.90
32187;DHT22;18686;53.084;8.872;2023-01-25T01:27:01;1.40;99.90
32187;DHT22;18686;53.084;8.872;2023-01-25T01:29:30;1.40;99.90
32187;DHT22;18686;53.084;8.872;2023-01-25T01:31:58;1.40;99.90
32187;DHT22;18686;53.084;8.872;2023-01-25T01:34:26;1.30;99.90
32187;DHT22;18686;53.084;8.872;2023-01-25T01:37:28;1.20;99.90
32187;DHT22;18686;53.084;8.872;2023-01-25T01:39:56;1.30;99.90
32187;DHT22;18686;53.084;8.872;2023-01-25T01:42:24;1.30;99.90
32187;DHT22;18686;53.084;8.872;2023-01-25T01:44:53;1.30;99.90
32187;DHT22;18686;53.084;8.872;2023-01-25T01:47:25;1.30;99.90
32187;DHT22;18686;53.084;8.872;2023-01-25T01:50:00;1.30;99.90
32187;DHT22;18686;53.084;8.872;2023-01-25T01:52:35;1.30;99.90
32187;DHT22;18686;53.084;8.872;2023-01-25T01:55:07;1.30;99.90
32187;DHT22;18686;53.084;8.872;2023-01-25T01:57:40;1.30;99.90
32187;DHT22;18686;53.084;8.872;2023-01-25T02:00:14;1.30;99.90
32187;DHT22;18686;53.084;8.872;2023-01-25T02:02:44;1.20;99.90
32187;DHT22;18686;53.084;8.872;2023-01-25T02:05:18;1.20;99.90
32187;DHT22;18686;53.084;8.872;2023-01-25T02:07:49;1.10;99.90
32187;DHT22;18686;53.084;8.872;2023-01-25T02:10:21;1.10;99.90
32187;DHT22;18686;53.084;8.872;2023-01-25T02:12:55;1.10;99.90
32187;DHT22;18686;53.084;8.872;2023-01-25T02:15:28;1.10;99.90
32187;DHT22;18686;53.084;8.872;2023-01-25T02:18:01;1.10;99.90
32187;DHT22;18686;53.084;8.872;2023-01-25T02:20:35;1.10;99.90
32187;DHT22;18686;53.084;8.872;2023-01-25T02:23:10;1.10;99.90
32187;DHT22;18686;53.084;8.872;2023-01-25T02:25:42;1.10;99.90
32187;DHT22;18686;53.084;8.872;2023-01-25T02:28:14;1.00;99.90
32187;DHT22;18686;53.084;8.872;2023-01-25T02:30:44;1.00;99.90
32187;DHT22;18686;53.084;8.872;2023-01-25T02:33:15;1.00;99.90
32187;DHT22;18686;53.084;8.872;2023-01-25T02:35:45;1.00;99.90
32187;DHT22;18686;53.084;8.872;2023-01-25T02:38:17;1.00;99.90
32187;DHT22;18686;53.084;8.872;2023-01-25T02:40:56;1.00;99.90
32187;DHT22;18686;53.084;8.872;2023-01-25T02:43:30;1.00;99.90
32187;DHT22;18686;53.084;8.872;2023-01-25T02:46:06;1.00;99.90
32187;DHT22;18686;53.084;8.872;2023-01-25T02:48:37;1.00;99.90
32187;DHT22;18686;53.084;8.872;2023-01-25T02:51:07;1.00;99.90
32187;DHT22;18686;53.084;8.872;2023-01-25T02:53:38;1.00;99.90
32187;DHT22;18686;53.084;8.872;2023-01-25T02:56:08;1.00;99.90
32187;DHT22;18686;53.084;8.872;2023-01-25T02:58:36;1.00;99.90
32187;DHT22;18686;53.084;8.872;2023-01-25T03:01:05;1.10;99.90
32187;DHT22;18686;53.084;8.872;2023-01-25T03:03:33;1.10;99.90
32187;DHT22;18686;53.084;8.872;2023-01-25T03:06:01;1.20;99.90
32187;DHT22;18686;53.084;8.872;2023-01-25T03:08:30;1.20;99.90
32187;DHT22;18686;53.084;8.872;2023-01-25T03:10:59;1.20;99.90
32187;DHT22;18686;53.084;8.872;2023-01-25T03:13:31;1.20;99.90
32187;DHT22;18686;53.084;8.872;2023-01-25T03:16:01;1.20;99.90
32187;DHT22;18686;53.084;8.872;2023-01-25T03:18:30;1.20;99.90
32187;DHT22;18686;53.084;8.872;2023-01-25T03:21:04;1.20;99.90
32187;DHT22;18686;53.084;8.872;2023-01-25T03:23:32;1.20;99.90
32187;DHT22;18686;53.084;8.872;2023-01-25T03:26:07;1.20;99.90
32187;DHT22;18686;53.084;8.872;2023-01-25T03:28:39;1.20;99.90
32187;DHT22;18686;53.084;8.872;2023-01-25T03:31:10;1.20;99.90
32187;DHT22;18686;53.084;8.872;2023-01-25T03:33:38;1.10;99.90
32187;DHT22;18686;53.084;8.872;2023-01-25T03:36:07;1.10;99.90
32187;DHT22;18686;53.084;8.872;2023-01-25T03:38:36;1.10;99.90
32187;DHT22;18686;53.084;8.872;2023-01-25T03:41:07;1.10;99.90
32187;DHT22;18686;53.084;8.872;2023-01-25T03:43:37;1.20;99.90
32187;DHT22;18686;53.084;8.872;2023-01-25T03:46:06;1.20;99.90
32187;DHT22;18686;53.084;8.872;2023-01-25T03:48:36;1.30;99.90
32187;DHT22;18686;53.084;8.872;2023-01-25T03:51:04;1.20;99.90
32187;DHT22;18686;53.084;8.872;2023-01-25T03:53:32;1.20;99.90
32187;DHT22;18686;53.084;8.872;2023-01-25T03:56:11;1.20;99.90
32187;DHT22;18686;53.084;8.872;2023-01-25T03:59:09;1.20;99.90
32187;DHT22;18686;53.084;8.872;2023-01-25T04:01:37;1.20;99.90
32187;DHT22;18686;53.084;8.872;2023-01-25T04:04:06;1.20;99.90
32187;DHT22;18686;53.084;8.872;2023-01-25T04:06:37;1.10;99.90
32187;DHT22;18686;53.084;8.872;2023-01-25T04:09:06;1.10;99.90
32187;DHT22;18686;53.084;8.872;2023-01-25T04:11:39;1.00;99.90
32187;DHT22;18686;53.084;8.872;2023-01-25T04:14:09;1.00;99.90
32187;DHT22;18686;53.084;8.872;2023-01-25T04:16:44;1.00;99.90
32187;DHT22;18686;53.084;8.872;2023-01-25T04:19:42;1.00;99.90
32187;DHT22;18686;53.084;8.872;2023-01-25T04:22:13;1.00;99.90
32187;DHT22;18686;53.084;8.872;2023-01-25T04:24:41;1.00;99.90
32187;DHT22;18686;53.084;8.872;2023-01-25T04:27:09;1.00;99.90
32187;DHT22;18686;53.084;8.872;2023-01-25T04:29:49;1.00;99.90
32187;DHT22;18686;53.084;8.872;2023-01-25T04:32:19;0.90;99.90
32187;DHT22;18686;53.084;8.872;2023-01-25T04:34:48;0.90;99.90
32187;DHT22;18686;53.084;8.872;2023-01-25T04:37:20;0.90;99.90
32187;DHT22;18686;53.084;8.872;2023-01-25T04:39:52;0.90;99.90
32187;DHT22;18686;53.084;8.872;2023-01-25T04:42:20;0.90;99.90
32187;DHT22;18686;53.084;8.872;2023-01-25T04:44:54;0.90;99.90
32187;DHT22;18686;53.084;8.872;2023-01-25T04:47:23;1.00;99.90
32187;DHT22;18686;53.084;8.872;2023-01-25T04:49:51;1.00;99.90
32187;DHT22;18686;53.084;8.872;2023-01-25T04:52:23;1.10;99.90
32187;DHT22;18686;53.084;8.872;2023-01-25T04:54:51;1.10;99.90
32187;DHT22;18686;53.084;8.872;2023-01-25T04:57:20;1.10;99.90
32187;DHT22;18686;53.084;8.872;2023-01-25T04:59:51;1.10;99.90
32187;DHT22;18686;53.084;8.872;2023-01-25T05:02:23;1.10;99.90
32187;DHT22;18686;53.084;8.872;2023-01-25T05:04:52;1.10;99.90
32187;DHT22;18686;53.084;8.872;2023-01-25T05:07:20;1.10;99.90
32187;DHT22;18686;53.084;8.872;2023-01-25T05:09:48;1.00;99.90
32187;DHT22;18686;53.084;8.872;2023-01-25T05:12:18;1.00;99.90
32187;DHT22;18686;53.084;8.872;2023-01-25T05:14:52;1.00;99.90
32187;DHT22;18686;53.084;8.872;2023-01-25T05:17:23;0.90;99.90
32187;DHT22;18686;53.084;8.872;2023-01-25T05:19:51;0.90;99.90
32187;DHT22;18686;53.084;8.872;2023-01-25T05:22:21;0.80;99.90
32187;DHT22;18686;53.084;8.872;2023-01-25T05:24:52;0.80;99.90
32187;DHT22;18686;53.084;8.872;2023-01-25T05:27:21;0.80;99.90
32187;DHT22;18686;53.084;8.872;2023-01-25T05:29:55;0.80;99.90
32187;DHT22;18686;53.084;8.872;2023-01-25T05:32:48;0.80;99.90
32187;DHT22;18686;53.084;8.872;2023-01-25T05:35:17;0.80;99.90
32187;DHT22;18686;53.084;8.872;2023-01-25T05:37:47;0.80;99.90
32187;DHT22;18686;53.084;8.872;2023-01-25T05:40:21;0.80;99.90
32187;DHT22;18686;53.084;8.872;2023-01-25T05:42:53;0.80;99.90
32187;DHT22;18686;53.084;8.872;2023-01-25T05:45:23;0.80;99.90
32187;DHT22;18686;53.084;8.872;2023-01-25T05:47:55;0.80;99.90
32187;DHT22;18686;53.084;8.872;2023-01-25T05:50:24;0.90;99.90
32187;DHT22;18686;53.084;8.872;2023-01-25T05:53:00;0.90;99.90
32187;DHT22;18686;53.084;8.872;2023-01-25T05:55:29;0.90;99.90
32187;DHT22;18686;53.084;8.872;2023-01-25T05:58:02;1.00;99.90
32187;DHT22;18686;53.084;8.872;2023-01-25T06:00:31;1.00;99.90
32187;DHT22;18686;53.084;8.872;2023-01-25T06:03:00;1.00;99.90
32187;DHT22;18686;53.084;8.872;2023-01-25T06:05:31;1.00;99.90
32187;DHT22;18686;53.084;8.872;2023-01-25T06:08:00;1.00;99.90
32187;DHT22;18686;53.084;8.872;2023-01-25T06:10:37;0.90;99.90
32187;DHT22;18686;53.084;8.872;2023-01-25T06:13:05;1.00;99.90
32187;DHT22;18686;53.084;8.872;2023-01-25T06:15:33;0.90;99.90
32187;DHT22;18686;53.084;8.872;2023-01-25T06:18:35;0.90;99.90
32187;DHT22;18686;53.084;8.872;2023-01-25T06:21:29;0.90;99.90
32187;DHT22;18686;53.084;8.872;2023-01-25T06:23:57;0.90;99.90
32187;DHT22;18686;53.084;8.872;2023-01-25T06:26:26;1.00;99.90
32187;DHT22;18686;53.084;8.872;2023-01-25T06:28:54;0.90;99.90
32187;DHT22;18686;53.084;8.872;2023-01-25T06:31:22;0.90;99.90
32187;DHT22;18686;53.084;8.872;2023-01-25T06:33:52;0.80;99.90
32187;DHT22;18686;53.084;8.872;2023-01-25T06:36:21;0.80;99.90
32187;DHT22;18686;53.084;8.872;2023-01-25T06:38:51;0.90;99.90
32187;DHT22;18686;53.084;8.872;2023-01-25T06:41:19;0.90;99.90
32187;DHT22;18686;53.084;8.872;2023-01-25T06:43:49;0.90;99.90
32187;DHT22;18686;53.084;8.872;2023-01-25T06:46:19;0.90;99.90
32187;DHT22;18686;53.084;8.872;2023-01-25T06:48:47;0.90;99.90
32187;DHT22;18686;53.084;8.872;2023-01-25T06:51:17;1.00;99.90
32187;DHT22;18686;53.084;8.872;2023-01-25T06:53:45;1.00;99.90
32187;DHT22;18686;53.084;8.872;2023-01-25T06:56:16;1.10;99.90
32187;DHT22;18686;53.084;8.872;2023-01-25T06:58:45;1.10;99.90
32187;DHT22;18686;53.084;8.872;2023-01-25T07:01:15;1.10;99.90
32187;DHT22;18686;53.084;8.872;2023-01-25T07:03:50;1.00;99.90
32187;DHT22;18686;53.084;8.872;2023-01-25T07:06:20;1.00;99.90
32187;DHT22;18686;53.084;8.872;2023-01-25T07:08:49;1.00;99.90
32187;DHT22;18686;53.084;8.872;2023-01-25T07:11:17;0.90;99.90
32187;DHT22;18686;53.084;8.872;2023-01-25T07:13:46;1.00;99.90
32187;DHT22;18686;53.084;8.872;2023-01-25T07:16:16;1.00;99.90
32187;DHT22;18686;53.084;8.872;2023-01-25T07:18:44;1.00;99.90
32187;DHT22;18686;53.084;8.872;2023-01-25T07:21:14;1.00;99.90
32187;DHT22;18686;53.084;8.872;2023-01-25T07:23:44;0.90;99.90
32187;DHT22;18686;53.084;8.872;2023-01-25T07:26:15;1.00;99.90
32187;DHT22;18686;53.084;8.872;2023-01-25T07:28:44;1.00;99.90
32187;DHT22;18686;53.084;8.872;2023-01-25T07:31:13;1.10;99.90
32187;DHT22;18686;53.084;8.872;2023-01-25T07:33:42;1.00;99.90
32187;DHT22;18686;53.084;8.872;2023-01-25T07:36:10;1.10;99.90
32187;DHT22;18686;53.084;8.872;2023-01-25T07:38:38;1.10;99.90
32187;DHT22;18686;53.084;8.872;2023-01-25T07:41:08;1.20;99.90
32187;DHT22;18686;53.084;8.872;2023-01-25T07:43:36;1.20;99.90
32187;DHT22;18686;53.084;8.872;2023-01-25T07:46:07;1.20;99.90
32187;DHT22;18686;53.084;8.872;2023-01-25T07:48:37;1.20;99.90
32187;DHT22;18686;53.084;8.872;2023-01-25T07:51:08;1.20;99.90
32187;DHT22;18686;53.084;8.872;2023-01-25T07:53:49;1.30;99.90
32187;DHT22;18686;53.084;8.872;2023-01-25T07:56:21;1.30;99.90
32187;DHT22;18686;53.084;8.872;2023-01-25T07:58:51;1.30;99.90
32187;DHT22;18686;53.084;8.872;2023-01-25T08:01:21;1.30;99.90
32187;DHT22;18686;53.084;8.872;2023-01-25T08:03:49;1.20;99.90
32187;DHT22;18686;53.084;8.872;2023-01-25T08:06:23;1.20;99.90
32187;DHT22;18686;53.084;8.872;2023-01-25T08:08:53;1.20;99.90
32187;DHT22;18686;53.084;8.872;2023-01-25T08:11:25;1.20;99.90
32187;DHT22;18686;53.084;8.872;2023-01-25T08:13:53;1.30;99.90
32187;DHT22;18686;53.084;8.872;2023-01-25T08:16:23;1.30;99.90
32187;DHT22;18686;53.084;8.872;2023-01-25T08:18:54;1.30;99.90
32187;DHT22;18686;53.084;8.872;2023-01-25T08:21:23;1.30;99.90
32187;DHT22;18686;53.084;8.872;2023-01-25T08:23:56;1.40;99.90
32187;DHT22;18686;53.084;8.872;2023-01-25T08:26:26;1.50;99.90
32187;DHT22;18686;53.084;8.872;2023-01-25T08:28:55;1.50;99.90
32187;DHT22;18686;53.084;8.872;2023-01-25T08:31:25;1.60;99.90
32187;DHT22;18686;53.084;8.872;2023-01-25T08:33:55;1.60;99.90
32187;DHT22;18686;53.084;8.872;2023-01-25T08:36:24;1.60;99.90
32187;DHT22;18686;53.084;8.872;2023-01-25T08:38:55;1.70;99.90
32187;DHT22;18686;53.084;8.872;2023-01-25T08:41:26;1.70;99.90
32187;DHT22;18686;53.084;8.872;2023-01-25T08:43:55;1.70;99.90
32187;DHT22;18686;53.084;8.872;2023-01-25T08:46:25;1.70;99.90
32187;DHT22;18686;53.084;8.872;2023-01-25T08:48:58;1.70;99.90
32187;DHT22;18686;53.084;8.872;2023-01-25T08:51:27;1.80;99.90
32187;DHT22;18686;53.084;8.872;2023-01-25T08:53:55;1.80;99.90
32187;DHT22;18686;53.084;8.872;2023-01-25T08:56:23;1.80;99.90
32187;DHT22;18686;53.084;8.872;2023-01-25T08:58:53;1.80;99.90
32187;DHT22;18686;53.084;8.872;2023-01-25T09:01:21;1.70;99.90
32187;DHT22;18686;53.084;8.872;2023-01-25T09:03:50;1.70;99.90
32187;DHT22;18686;53.084;8.872;2023-01-25T09:06:18;1.70;99.90
32187;DHT22;18686;53.084;8.872;2023-01-25T09:08:47;1.70;99.90
32187;DHT22;18686;53.084;8.872;2023-01-25T09:11:16;1.70;99.90
32187;DHT22;18686;53.084;8.872;2023-01-25T09:13:45;1.70;99.90
32187;DHT22;18686;53.084;8.872;2023-01-25T09:16:20;1.70;99.90
32187;DHT22;18686;53.084;8.872;2023-01-25T09:18:56;1.60;99.90
32187;DHT22;18686;53.084;8.872;2023-01-25T09:21:25;1.60;99.90
32187;DHT22;18686;53.084;8.872;2023-01-25T09:23:53;1.60;99.90
32187;DHT22;18686;53.084;8.872;2023-01-25T09:26:39;1.60;99.90
32187;DHT22;18686;53.084;8.872;2023-01-25T09:29:15;1.70;99.90
32187;DHT22;18686;53.084;8.872;2023-01-25T09:31:45;1.70;99.90
32187;DHT22;18686;53.084;8.872;2023-01-25T09:34:36;1.80;99.90
32187;DHT22;18686;53.084;8.872;2023-01-25T09:37:04;1.80;99.90
32187;DHT22;18686;53.084;8.872;2023-01-25T09:39:32;1.80;99.90
32187;DHT22;18686;53.084;8.872;2023-01-25T09:42:26;1.80;99.90
32187;DHT22;18686;53.084;8.872;2023-01-25T09:45:13;1.90;99.90
32187;DHT22;18686;53.084;8.872;2023-01-25T09:47:49;1.90;99.90
32187;DHT22;18686;53.084;8.872;2023-01-25T09:50:37;2.00;99.90
32187;DHT22;18686;53.084;8.872;2023-01-25T09:56:11;2.00;99.90
32187;DHT22;18686;53.084;8.872;2023-01-25T09:58:43;2.00;99.90
32187;DHT22;18686;53.084;8.872;2023-01-25T10:01:33;2.00;99.90
32187;DHT22;18686;53.084;8.872;2023-01-25T10:04:12;1.90;99.90
32187;DHT22;18686;53.084;8.872;2023-01-25T10:06:43;1.90;99.90
32187;DHT22;18686;53.084;8.872;2023-01-25T10:09:32;1.90;99.90
32187;DHT22;18686;53.084;8.872;2023-01-25T10:12:12;1.90;99.90
32187;DHT22;18686;53.084;8.872;2023-01-25T10:14:42;1.80;99.90
32187;DHT22;18686;53.084;8.872;2023-01-25T10:17:13;1.90;99.90
32187;DHT22;18686;53.084;8.872;2023-01-25T10:19:54;1.80;99.90
32187;DHT22;18686;53.084;8.872;2023-01-25T10:22:28;1.80;99.90
32187;DHT22;18686;53.084;8.872;2023-01-25T10:28:02;1.90;99.90
32187;DHT22;18686;53.084;8.872;2023-01-25T10:30:37;1.80;99.90
32187;DHT22;18686;53.084;8.872;2023-01-25T10:33:12;1.70;99.90
32187;DHT22;18686;53.084;8.872;2023-01-25T10:35:45;1.80;99.90
32187;DHT22;18686;53.084;8.872;2023-01-25T10:38:18;1.60;99.90
32187;DHT22;18686;53.084;8.872;2023-01-25T10:40:52;1.40;99.90
32187;DHT22;18686;53.084;8.872;2023-01-25T10:43:22;1.40;99.90
32187;DHT22;18686;53.084;8.872;2023-01-25T10:45:50;1.40;99.90
32187;DHT22;18686;53.084;8.872;2023-01-25T10:48:20;1.50;99.90
32187;DHT22;18686;53.084;8.872;2023-01-25T10:50:53;1.40;99.90
32187;DHT22;18686;53.084;8.872;2023-01-25T10:53:30;1.40;99.90
32187;DHT22;18686;53.084;8.872;2023-01-25T10:56:21;1.30;99.90
32187;DHT22;18686;53.084;8.872;2023-01-25T10:58:52;1.30;99.90
32187;DHT22;18686;53.084;8.872;2023-01-25T11:01:33;1.40;99.90
32187;DHT22;18686;53.084;8.872;2023-01-25T11:04:22;1.40;99.90
32187;DHT22;18686;53.084;8.872;2023-01-25T11:06:52;1.40;99.90
32187;DHT22;18686;53.084;8.872;2023-01-25T11:09:32;1.20;99.90
32187;DHT22;18686;53.084;8.872;2023-01-25T11:12:02;1.20;99.90
32187;DHT22;18686;53.084;8.872;2023-01-25T11:14:31;1.20;99.90
32187;DHT22;18686;53.084;8.872;2023-01-25T11:17:01;1.20;99.90
32187;DHT22;18686;53.084;8.872;2023-01-25T11:19:32;1.30;99.90
32187;DHT22;18686;53.084;8.872;2023-01-25T11:22:04;1.30;99.90
32187;DHT22;18686;53.084;8.872;2023-01-25T11:24:35;1.40;99.90
32187;DHT22;18686;53.084;8.872;2023-01-25T11:27:21;1.40;99.90
32187;DHT22;18686;53.084;8.872;2023-01-25T11:30:07;1.50;99.90
32187;DHT22;18686;53.084;8.872;2023-01-25T11:32:38;1.50;99.90
32187;DHT22;18686;53.084;8.872;2023-01-25T11:35:12;1.50;99.90
32187;DHT22;18686;53.084;8.872;2023-01-25T11:38:01;1.50;99.90
32187;DHT22;18686;53.084;8.872;2023-01-25T11:40:35;1.50;99.90
32187;DHT22;18686;53.084;8.872;2023-01-25T11:43:15;1.50;99.90
32187;DHT22;18686;53.084;8.872;2023-01-25T11:45:57;1.50;99.90
32187;DHT22;18686;53.084;8.872;2023-01-25T11:49:00;1.50;99.90
32187;DHT22;18686;53.084;8.872;2023-01-25T11:51:34;1.50;99.90
32187;DHT22;18686;53.084;8.872;2023-01-25T11:56:57;1.40;99.90
32187;DHT22;18686;53.084;8.872;2023-01-25T11:59:38;1.40;99.90
32187;DHT22;18686;53.084;8.872;2023-01-25T12:02:36;1.40;99.90
32187;DHT22;18686;53.084;8.872;2023-01-25T12:05:36;1.50;99.90
32187;DHT22;18686;53.084;8.872;2023-01-25T12:08:32;1.50;99.90
32187;DHT22;18686;53.084;8.872;2023-01-25T12:11:10;1.60;99.90
32187;DHT22;18686;53.084;8.872;2023-01-25T12:13:50;1.60;99.90
32187;DHT22;18686;53.084;8.872;2023-01-25T12:16:33;1.60;99.90
32187;DHT22;18686;53.084;8.872;2023-01-25T12:22:13;1.70;99.90
32187;DHT22;18686;53.084;8.872;2023-01-25T12:24:50;1.70;99.90
32187;DHT22;18686;53.084;8.872;2023-01-25T12:27:30;1.70;99.90
32187;DHT22;18686;53.084;8.872;2023-01-25T12:30:12;1.70;99.90
32187;DHT22;18686;53.084;8.872;2023-01-25T12:32:47;1.70;99.90
32187;DHT22;18686;53.084;8.872;2023-01-25T12:35:25;1.80;99.90
32187;DHT22;18686;53.084;8.872;2023-01-25T12:37:59;1.80;99.90
32187;DHT22;18686;53.084;8.872;2023-01-25T12:40:33;1.80;99.90
32187;DHT22;18686;53.084;8.872;2023-01-25T12:43:10;1.80;99.90
32187;DHT22;18686;53.084;8.872;2023-01-25T12:45:44;1.80;99.90
32187;DHT22;18686;53.084;8.872;2023-01-25T12:48:17;1.70;99.90
32187;DHT22;18686;53.084;8.872;2023-01-25T12:50:51;1.60;99.90
32187;DHT22;18686;53.084;8.872;2023-01-25T12:53:20;1.60;99.90
32187;DHT22;18686;53.084;8.872;2023-01-25T12:55:51;1.60;99.90
32187;DHT22;18686;53.084;8.872;2023-01-25T12:58:27;1.60;99.90
32187;DHT22;18686;53.084;8.872;2023-01-25T13:01:10;1.60;99.90
32187;DHT22;18686;53.084;8.872;2023-01-25T13:03:55;1.70;99.90
32187;DHT22;18686;53.084;8.872;2023-01-25T13:06:33;1.70;99.90
32187;DHT22;18686;53.084;8.872;2023-01-25T13:09:09;1.70;99.90
32187;DHT22;18686;53.084;8.872;2023-01-25T13:11:42;1.70;99.90
32187;DHT22;18686;53.084;8.872;2023-01-25T13:14:28;1.70;99.90
32187;DHT22;18686;53.084;8.872;2023-01-25T13:17:17;1.70;99.90
32187;DHT22;18686;53.084;8.872;2023-01-25T13:19:47;1.60;99.90
32187;DHT22;18686;53.084;8.872;2023-01-25T13:22:54;1.60;99.90
32187;DHT22;18686;53.084;8.872;2023-01-25T13:25:25;1.60;99.90
32187;DHT22;18686;53.084;8.872;2023-01-25T13:31:00;1.60;99.90
32187;DHT22;18686;53.084;8.872;2023-01-25T13:33:34;1.60;99.90
32187;DHT22;18686;53.084;8.872;2023-01-25T13:36:36;1.60;99.90
32187;DHT22;18686;53.084;8.872;2023-01-25T13:42:18;1.60;99.90
32187;DHT22;18686;53.084;8.872;2023-01-25T13:44:48;1.60;99.90
32187;DHT22;18686;53.084;8.872;2023-01-25T13:47:20;1.60;99.90
32187;DHT22;18686;53.084;8.872;2023-01-25T13:49:54;1.60;99.90
32187;DHT22;18686;53.084;8.872;2023-01-25T13:52:25;1.60;99.90
32187;DHT22;18686;53.084;8.872;2023-01-25T13:54:55;1.60;99.90
32187;DHT22;18686;53.084;8.872;2023-01-25T13:57:25;1.60;99.90
32187;DHT22;18686;53.084;8.872;2023-01-25T13:59:58;1.60;99.90
32187;DHT22;18686;53.084;8.872;2023-01-25T14:02:41;1.70;99.90
32187;DHT22;18686;53.084;8.872;2023-01-25T14:05:19;1.60;99.90
32187;DHT22;18686;53.084;8.872;2023-01-25T14:07:50;1.60;99.90
32187;DHT22;18686;53.084;8.872;2023-01-25T14:10:21;1.60;99.90
32187;DHT22;18686;53.084;8.872;2023-01-25T14:12:51;1.60;99.90
32187;DHT22;18686;53.084;8.872;2023-01-25T14:15:22;1.60;99.90
32187;DHT22;18686;53.084;8.872;2023-01-25T14:18:11;1.60;99.90
32187;DHT22;18686;53.084;8.872;2023-01-25T14:20:42;1.60;99.90
32187;DHT22;18686;53.084;8.872;2023-01-25T14:23:22;1.40;99.90
32187;DHT22;18686;53.084;8.872;2023-01-25T14:25:52;1.40;99.90
32187;DHT22;18686;53.084;8.872;2023-01-25T14:28:21;1.30;99.90
32187;DHT22;18686;53.084;8.872;2023-01-25T14:30:50;1.30;99.90
32187;DHT22;18686;53.084;8.872;2023-01-25T14:33:21;1.30;99.90
32187;DHT22;18686;53.084;8.872;2023-01-25T14:35:53;1.30;99.90
32187;DHT22;18686;53.084;8.872;2023-01-25T14:38:32;1.20;99.90
32187;DHT22;18686;53.084;8.872;2023-01-25T14:41:06;1.20;99.90
32187;DHT22;18686;53.084;8.872;2023-01-25T14:43:39;1.10;99.90
32187;DHT22;18686;53.084;8.872;2023-01-25T14:46:20;1.10;99.90
32187;DHT22;18686;53.084;8.872;2023-01-25T14:48:48;1.00;99.90
32187;DHT22;18686;53.084;8.872;2023-01-25T14:51:25;1.00;99.90
32187;DHT22;18686;53.084;8.872;2023-01-25T14:53:59;0.90;99.90
32187;DHT22;18686;53.084;8.872;2023-01-25T14:56:34;0.90;99.90
32187;DHT22;18686;53.084;8.872;2023-01-25T14:59:05;0.90;99.90
32187;DHT22;18686;53.084;8.872;2023-01-25T15:01:37;0.90;99.90
32187;DHT22;18686;53.084;8.872;2023-01-25T15:04:10;1.00;99.90
32187;DHT22;18686;53.084;8.872;2023-01-25T15:06:46;0.90;99.90
32187;DHT22;18686;53.084;8.872;2023-01-25T15:09:35;0.90;99.90
32187;DHT22;18686;53.084;8.872;2023-01-25T15:12:05;0.90;99.90
32187;DHT22;18686;53.084;8.872;2023-01-25T15:14:50;0.90;99.90
32187;DHT22;18686;53.084;8.872;2023-01-25T15:17:38;0.80;99.90
32187;DHT22;18686;53.084;8.872;2023-01-25T15:20:28;0.80;99.90
32187;DHT22;18686;53.084;8.872;2023-01-25T15:23:01;0.80;99.90
32187;DHT22;18686;53.084;8.872;2023-01-25T15:25:30;0.80;99.90
32187;DHT22;18686;53.084;8.872;2023-01-25T15:27:59;0.80;99.90
32187;DHT22;18686;53.084;8.872;2023-01-25T15:30:27;0.80;99.90
32187;DHT22;18686;53.084;8.872;2023-01-25T15:32:55;0.80;99.90
32187;DHT22;18686;53.084;8.872;2023-01-25T15:35:23;0.80;99.90
32187;DHT22;18686;53.084;8.872;2023-01-25T15:37:51;0.80;99.90
32187;DHT22;18686;53.084;8.872;2023-01-25T15:40:21;0.80;99.90
32187;DHT22;18686;53.084;8.872;2023-01-25T15:42:49;0.80;99.90
32187;DHT22;18686;53.084;8.872;2023-01-25T15:45:17;0.80;99.90
32187;DHT22;18686;53.084;8.872;2023-01-25T15:47:45;0.80;99.90
32187;DHT22;18686;53.084;8.872;2023-01-25T15:50:16;0.90;99.90
32187;DHT22;18686;53.084;8.872;2023-01-25T15:52:45;0.90;99.90
32187;DHT22;18686;53.084;8.872;2023-01-25T15:55:14;0.90;99.90
32187;DHT22;18686;53.084;8.872;2023-01-25T15:57:43;0.90;99.90
32187;DHT22;18686;53.084;8.872;2023-01-25T16:00:18;0.90;99.90
32187;DHT22;18686;53.084;8.872;2023-01-25T16:02:48;1.00;99.90
32187;DHT22;18686;53.084;8.872;2023-01-25T16:05:17;0.90;99.90
32187;DHT22;18686;53.084;8.872;2023-01-25T16:07:45;0.90;99.90
32187;DHT22;18686;53.084;8.872;2023-01-25T16:10:21;0.90;99.90
32187;DHT22;18686;53.084;8.872;2023-01-25T16:12:51;0.80;99.90
32187;DHT22;18686;53.084;8.872;2023-01-25T16:15:19;0.80;99.90
32187;DHT22;18686;53.084;8.872;2023-01-25T16:17:47;0.80;99.90
32187;DHT22;18686;53.084;8.872;2023-01-25T16:20:17;0.80;99.90
32187;DHT22;18686;53.084;8.872;2023-01-25T16:22:46;0.80;99.90
32187;DHT22;18686;53.084;8.872;2023-01-25T16:25:14;0.80;99.90
32187;DHT22;18686;53.084;8.872;2023-01-25T16:27:43;0.80;99.90
32187;DHT22;18686;53.084;8.872;2023-01-25T16:30:18;0.80;99.90
32187;DHT22;18686;53.084;8.872;2023-01-25T16:32:49;0.80;99.90
32187;DHT22;18686;53.084;8.872;2023-01-25T16:35:19;0.80;99.90
32187;DHT22;18686;53.084;8.872;2023-01-25T16:37:47;0.80;99.90
32187;DHT22;18686;53.084;8.872;2023-01-25T16:40:25;0.70;99.90